Wednesday, December 12, 2018, 11:16 PM EST
Back to Local

KPNE, N.e. Philadelphia Airport

Location: Philadelphia, PA, United States Lat: 40.083
Local Time: 11:16 PM EST ( 4:16 GMT) Lon: -75.017
Time Zone: US/Eastern Elev: 121 ft

Show me the last for .
Show Coded

Time T Td Feel RH Dir Speed Gust Alt SLP Vis Weather Sky Remarks
2018-12-12 22:54 36 23 - 58 - Calm - 30.26 30.27 10 CLR None
2018-12-12 21:54 34 24 28 66 100° 7 - 30.24 30.24 10 CLR None
2018-12-12 20:54 30 21 24 68 80° 6 - 30.24 30.24 10 CLR None
2018-12-12 19:54 36 23 - 58 - Calm - 30.24 30.24 10 CLR None
2018-12-12 18:54 37 24 - 59 - Calm - 30.22 30.22 10 CLR 6-hr Min Temp (7pm): 36.0°F
6-hr Max Temp (7pm): 45.0°F
2018-12-12 17:54 39 23 - 52 - Calm - 30.21 30.21 10 CLR None
2018-12-12 16:54 41 22 - 46 - Calm - 30.20 30.19 10 CLR None
2018-12-12 15:54 42 22 38 44 340° 6 - 30.17 30.17 10 CLR None
2018-12-12 14:54 44 23 40 42 280° 7 - 30.16 30.16 10 CLR None
2018-12-12 13:54 44 23 43 42 Variable 3 - 30.15 30.15 10 FEW045 None
2018-12-12 12:54 44 23 40 42 300° 8 - 30.17 30.17 10 SCT044 6-hr Min Temp (1pm): 32.0°F
6-hr Max Temp (1pm): 46.0°F
2018-12-12 11:54 45 24 39 43 320° 12 - 30.17 30.17 10 CLR None
2018-12-12 10:54 43 24 37 46 320° 12 - 30.19 30.19 10 CLR None
2018-12-12 09:54 40 25 34 54 290° 9 - 30.18 30.19 10 CLR None
2018-12-12 08:54 37 24 32 59 310° 7 - 30.17 30.17 8 CLR None
2018-12-12 07:54 34 24 29 66 290° 6 - 30.16 30.16 7 CLR None
2018-12-12 06:54 33 23 26 66 290° 8 - 30.13 30.13 9 CLR 6-hr Min Temp (7am): 32.0°F
6-hr Max Temp (7am): 35.1°F
2018-12-12 05:54 33 22 28 63 290° 6 - 30.11 30.11 9 FEW060 None
2018-12-12 04:54 34 22 26 60 300° 10 - 30.09 30.09 9 CLR None
2018-12-12 03:54 34 21 27 58 300° 9 - 30.06 30.06 9 FEW060 None
2018-12-12 02:54 34 21 30 58 280° 5 - 30.05 30.05 9 OVC060 None
2018-12-12 01:54 34 21 29 58 260° 6 - 30.04 30.04 9 OVC065 None
2018-12-12 00:54 34 20 30 55 290° 5 - 30.02 30.02 10 OVC060 6-hr Min Temp (1am): 32.0°F
6-hr Max Temp (1am): 35.1°F
2018-12-11 23:54 35 20 30 53 310° 6 - 30.02 30.02 10 BKN050 OVC065 24-hr Min Temp (12am): 24.1°F
24-hr Max Temp (12am): 44.1°F

Support USWX by starting your Amazon purchase here.